Strona główna
METAR-TAF:

METAR-TAF

Lotnisko :

Winchester Regional Airport

Winchester, Wirginia, Stany Zjednoczone

Szerokość geograficzna: 39-09N, Długość geograficzna: 078-09W, wysokość: 222 m

Aktualna obserwacja pogody

Raport powstał 24 minut temu, godzina 08:35 UTC
Wiatr 4 kt od południowo-południowy zachód
Temperatura 6°C
Wilgotność 65%
Ciśnienie 1007 hPa
Widzialność: 16.1 km
Rozproszone chmury na wysokości 4100 ft
Zachmurzenie całkowite na wysokości 4800 ft

METAR: KOKV 150835Z AUTO 21004KT 10SM SCT041 OVC048 06/00 A2973 RMK AO2

czas: 03:59 (08:59 UTC)


TAF: brakujący

Obserwacja i prognoza pogody dla ponad 4000 lotnisk (raport METAR i TAF).

Dostępne stacje oznaczono żółtymi i czerwonymi punktami na mapie.

Najedź kursorem aby zobaczyć nazwę stacji.

Kliknij aby zobaczyć obserwacje i prognozy pogody.

Aby zmienić mapę: kliknij na zielony przycisk z czarnym krzyżykiem, aby powiększyć; na zielony przycisk z myślnikiem, aby pomniejszyć; na zielone strzałki, aby przejść do map sąsiednich.


METAR-TAF: